Spartanburg, South Carolina
Current Conditions -  °F | °C
As of 5:55 AM on Thursday 27 Nov 2014 (Local Time) from KSPA Reporting Station
Clear Clear  
Wind Chill: 34°   Ceiling: Unl
Heat Index: 39°   Visibility: 10mi
Dew Point: 32°   Wind: 7mph
Humidity: 75%   Direction: 250°WSW
Pressure: 30"   Gusts: NA
Location:  34.95°N, 81.93°W
Report Text: KSPA 271055Z AUTO 25006KT 10SM CLR 04/00 A3000 RMK AO2
Loading
Personal Weather Stations






























Interactive Weather Map New forecast layout! Learn more

10-Day Weather Forecast

Advertisements
Track Severe Weather on mobile